createdAt,value
2018-05-21T00:01:52.262Z,15.50
2018-05-21T00:04:19.760Z,15.50
2018-05-21T00:06:48.070Z,15.40
2018-05-21T00:09:15.577Z,15.40
2018-05-21T00:11:43.117Z,15.40
2018-05-21T00:14:10.610Z,15.40
2018-05-21T00:16:38.939Z,15.40
2018-05-21T00:19:06.436Z,15.40
2018-05-21T00:21:33.969Z,15.40
2018-05-21T00:24:01.495Z,15.40
2018-05-21T00:26:29.034Z,15.40
2018-05-21T00:28:56.523Z,15.40
2018-05-21T00:31:24.014Z,15.30
2018-05-21T00:33:51.552Z,15.20
2018-05-21T00:36:19.055Z,15.20
2018-05-21T00:38:47.378Z,15.10
2018-05-21T00:41:21.553Z,15.10
2018-05-21T00:43:49.078Z,15.10
2018-05-21T00:46:17.350Z,15.10
2018-05-21T00:48:45.014Z,15.10
2018-05-21T00:51:12.556Z,15.10
2018-05-21T00:53:40.113Z,15.10
2018-05-21T00:56:07.624Z,15.10
2018-05-21T00:58:35.939Z,15.10
2018-05-21T01:01:03.483Z,15.10
2018-05-21T01:03:31.129Z,15.00
2018-05-21T01:05:58.643Z,15.00
2018-05-21T01:08:26.290Z,14.90
2018-05-21T01:10:54.614Z,14.90
2018-05-21T01:13:23.030Z,14.90
2018-05-21T01:15:50.554Z,14.90
2018-05-21T01:18:18.889Z,14.90
2018-05-21T01:20:46.466Z,14.90
2018-05-21T01:23:14.021Z,14.90
2018-05-21T01:25:41.769Z,14.80
2018-05-21T01:28:09.257Z,14.80
2018-05-21T01:30:37.605Z,14.80
2018-05-21T01:33:05.094Z,14.80
2018-05-21T01:35:32.639Z,14.70
2018-05-21T01:38:00.131Z,14.70
2018-05-21T01:40:28.428Z,14.60
2018-05-21T01:42:55.931Z,14.60
2018-05-21T01:45:23.471Z,14.60
2018-05-21T01:47:50.958Z,14.60
2018-05-21T01:50:18.498Z,14.60
2018-05-21T01:52:45.991Z,14.60
2018-05-21T01:55:13.524Z,14.60
2018-05-21T01:57:41.017Z,14.60
2018-05-21T02:00:09.335Z,14.50
2018-05-21T02:02:36.867Z,14.50
2018-05-21T02:05:04.368Z,14.50
2018-05-21T02:07:31.903Z,14.50
2018-05-21T02:09:59.391Z,14.50
2018-05-21T02:12:26.930Z,14.50
2018-05-21T02:14:54.436Z,14.50
2018-05-21T02:17:22.749Z,14.40
2018-05-21T02:19:50.242Z,14.40
2018-05-21T02:22:17.786Z,14.40
2018-05-21T02:24:45.282Z,14.30
2018-05-21T02:27:13.583Z,14.30
2018-05-21T02:29:41.083Z,14.30
2018-05-21T02:32:08.707Z,14.30
2018-05-21T02:34:36.203Z,14.30
2018-05-21T02:37:03.740Z,14.20
2018-05-21T02:39:31.249Z,14.20
2018-05-21T02:41:59.552Z,14.20
2018-05-21T02:44:27.072Z,14.20
2018-05-21T02:46:54.884Z,14.20
2018-05-21T02:49:22.388Z,14.10
2018-05-21T02:51:49.885Z,14.10
2018-05-21T02:54:17.427Z,14.10
2018-05-21T02:56:45.688Z,14.00
2018-05-21T02:59:13.218Z,14.00
2018-05-21T03:01:40.711Z,14.00
2018-05-21T03:04:08.246Z,13.90
2018-05-21T03:06:35.745Z,13.90
2018-05-21T03:09:04.066Z,13.90
2018-05-21T03:11:31.559Z,13.90
2018-05-21T03:13:59.090Z,13.80
2018-05-21T03:16:26.591Z,13.90
2018-05-21T03:18:54.894Z,13.90
2018-05-21T03:21:22.400Z,13.80
2018-05-21T03:23:49.926Z,13.80
2018-05-21T03:26:17.419Z,13.90
2018-05-21T03:28:44.923Z,13.90
2018-05-21T03:31:12.464Z,14.00
2018-05-21T03:33:39.967Z,14.10
2018-05-21T03:36:07.521Z,14.20
2018-05-21T03:38:35.016Z,14.30
2018-05-21T03:41:02.515Z,14.40
2018-05-21T03:43:30.043Z,14.50
2018-05-21T03:45:57.546Z,14.60
2018-05-21T03:48:25.076Z,14.70
2018-05-21T03:50:52.574Z,14.80
2018-05-21T03:53:20.131Z,14.90
2018-05-21T03:55:47.621Z,14.90
2018-05-21T03:58:26.979Z,15.10
2018-05-21T04:01:06.271Z,15.20
2018-05-21T04:03:45.554Z,15.30
2018-05-21T04:06:13.880Z,15.40
2018-05-21T04:08:41.385Z,15.40
2018-05-21T04:11:08.877Z,15.50
2018-05-21T04:13:36.415Z,15.60
2018-05-21T04:16:04.774Z,15.70
2018-05-21T04:18:32.308Z,15.70
2018-05-21T04:20:59.882Z,15.90
2018-05-21T04:23:27.443Z,15.90
2018-05-21T04:25:54.986Z,16.00
2018-05-21T04:35:07.325Z,16.40
2018-05-21T04:37:34.853Z,16.40
2018-05-21T04:40:02.368Z,16.40
2018-05-21T04:42:29.896Z,16.60
2018-05-21T04:44:57.394Z,16.60
2018-05-21T04:47:24.931Z,16.70
2018-05-21T04:49:52.477Z,16.80
2018-05-21T04:52:19.992Z,16.90
2018-05-21T04:54:47.543Z,17.00
2018-05-21T04:57:15.816Z,17.10
2018-05-21T04:59:43.383Z,17.10
2018-05-21T05:02:10.875Z,17.20
2018-05-21T05:04:38.446Z,17.30
2018-05-21T05:07:05.954Z,17.40
2018-05-21T05:09:33.485Z,17.40
2018-05-21T05:12:00.983Z,17.50
2018-05-21T05:14:28.528Z,17.60
2018-05-21T05:16:56.023Z,17.60
2018-05-21T05:19:23.579Z,17.70
2018-05-21T05:21:51.086Z,17.70
2018-05-21T05:24:18.627Z,17.80
2018-05-21T05:26:46.114Z,17.90
2018-05-21T05:29:13.668Z,17.90
2018-05-21T05:31:41.170Z,18.00
2018-05-21T05:34:08.684Z,18.00
2018-05-21T05:36:36.222Z,18.10
2018-05-21T05:39:03.727Z,18.20
2018-05-21T05:41:32.030Z,18.30
2018-05-21T05:43:59.549Z,18.30
2018-05-21T05:46:27.865Z,18.40
2018-05-21T05:48:55.578Z,18.40
2018-05-21T05:51:23.157Z,18.40
2018-05-21T05:53:51.492Z,18.50
2018-05-21T05:56:19.145Z,18.50
2018-05-21T05:58:46.719Z,18.60
2018-05-21T06:01:14.271Z,18.60
2018-05-21T06:03:41.802Z,18.70
2018-05-21T06:06:09.333Z,18.70
2018-05-21T06:08:37.600Z,18.80
2018-05-21T06:11:05.923Z,18.90
2018-05-21T06:13:33.439Z,18.90
2018-05-21T06:16:00.991Z,19.00
2018-05-21T06:18:29.303Z,19.10
2018-05-21T06:20:57.580Z,19.10
2018-05-21T06:23:25.119Z,19.10
2018-05-21T06:25:52.714Z,19.20
2018-05-21T06:28:20.979Z,19.30
2018-05-21T06:30:48.537Z,19.30
2018-05-21T06:33:16.035Z,19.30
2018-05-21T06:35:43.554Z,19.30
2018-05-21T06:38:11.120Z,19.40
2018-05-21T06:40:38.643Z,19.40
2018-05-21T06:43:06.967Z,19.60
2018-05-21T06:45:34.472Z,19.60
2018-05-21T06:48:02.017Z,19.60
2018-05-21T06:50:29.513Z,19.60
2018-05-21T06:52:57.086Z,19.70
2018-05-21T06:55:24.703Z,19.80
2018-05-21T06:57:53.037Z,20.00
2018-05-21T07:00:20.553Z,20.00
2018-05-21T07:02:48.874Z,20.10
2018-05-21T07:05:16.375Z,20.10
2018-05-21T07:07:43.911Z,20.20
2018-05-21T07:10:12.208Z,20.30
2018-05-21T07:12:39.762Z,20.30
2018-05-21T07:15:07.276Z,20.40
2018-05-21T07:17:34.877Z,20.50
2018-05-21T07:20:02.371Z,20.60
2018-05-21T07:22:30.667Z,20.80
2018-05-21T07:24:58.218Z,20.70
2018-05-21T07:27:25.741Z,20.80
2018-05-21T07:29:53.293Z,20.90
2018-05-21T07:32:20.792Z,21.00
2018-05-21T07:34:48.350Z,21.10
2018-05-21T07:37:15.855Z,21.10
2018-05-21T07:39:43.392Z,21.20
2018-05-21T07:42:10.904Z,21.30
2018-05-21T07:44:39.209Z,21.50
2018-05-21T07:47:06.702Z,21.50
2018-05-21T07:49:34.282Z,21.60
2018-05-21T07:52:01.781Z,21.70
2018-05-21T07:54:29.334Z,21.80
2018-05-21T07:56:56.963Z,21.90
2018-05-21T07:59:24.559Z,21.90
2018-05-21T08:01:52.067Z,22.00
2018-05-21T08:04:19.614Z,22.10
2018-05-21T08:06:47.169Z,22.10
2018-05-21T08:09:14.700Z,22.20
2018-05-21T08:11:42.230Z,22.30
2018-05-21T08:14:10.587Z,22.40
2018-05-21T08:16:38.100Z,22.40
2018-05-21T08:19:05.646Z,22.50
2018-05-21T08:21:33.163Z,22.40
2018-05-21T08:24:00.701Z,22.40
2018-05-21T08:26:29.098Z,22.50
2018-05-21T08:28:56.596Z,22.60
2018-05-21T08:31:24.140Z,22.70
2018-05-21T08:33:52.427Z,22.90
2018-05-21T08:36:20.741Z,23.00
2018-05-21T08:38:48.242Z,23.00
2018-05-21T08:41:15.774Z,23.00
2018-05-21T08:43:43.278Z,23.10
2018-05-21T08:46:11.572Z,23.10
2018-05-21T08:48:39.091Z,23.10
2018-05-21T08:51:06.639Z,23.10
2018-05-21T08:53:34.134Z,23.10
2018-05-21T08:56:02.476Z,23.10
2018-05-21T08:58:29.978Z,23.10
2018-05-21T09:00:57.481Z,23.20
2018-05-21T09:03:25.017Z,23.20
2018-05-21T09:05:52.530Z,23.30
2018-05-21T09:08:21.244Z,23.20
2018-05-21T09:10:48.757Z,23.20
2018-05-21T09:13:16.303Z,23.20
2018-05-21T09:15:43.798Z,23.20
2018-05-21T09:18:12.098Z,23.30
2018-05-21T09:20:39.624Z,23.20
2018-05-21T09:23:08.148Z,23.20
2018-05-21T09:25:35.671Z,23.20
2018-05-21T09:28:03.995Z,23.30
2018-05-21T09:30:31.516Z,23.20
2018-05-21T09:32:59.065Z,23.30
2018-05-21T09:35:27.331Z,23.40
2018-05-21T09:37:54.877Z,23.40
2018-05-21T09:40:22.786Z,23.40
2018-05-21T09:42:50.288Z,23.50
2018-05-21T09:45:17.800Z,23.50
2018-05-21T09:47:46.105Z,23.40
2018-05-21T09:50:13.598Z,23.40
2018-05-21T09:52:41.130Z,23.40
2018-05-21T09:55:08.780Z,23.40
2018-05-21T09:57:36.315Z,23.40
2018-05-21T10:00:04.570Z,23.40
2018-05-21T10:02:32.879Z,23.40
2018-05-21T10:05:00.390Z,23.40
2018-05-21T10:07:27.928Z,23.40
2018-05-21T10:09:55.422Z,23.40
2018-05-21T10:12:22.950Z,23.40
2018-05-21T10:14:50.458Z,23.20
2018-05-21T10:17:17.993Z,23.10
2018-05-21T10:19:45.577Z,23.10
2018-05-21T10:22:13.119Z,23.00
2018-05-21T10:24:41.386Z,23.10
2018-05-21T10:27:08.950Z,23.10
2018-05-21T10:29:36.574Z,23.10
2018-05-21T10:32:04.114Z,23.20
2018-05-21T10:34:31.642Z,23.10
2018-05-21T10:36:59.959Z,23.10
2018-05-21T10:39:27.510Z,23.20
2018-05-21T10:41:55.042Z,23.10
2018-05-21T10:44:24.295Z,23.10
2018-05-21T10:46:52.747Z,23.00
2018-05-21T10:49:20.364Z,23.00
2018-05-21T10:51:47.854Z,23.00
2018-05-21T10:54:15.413Z,23.00
2018-05-21T10:56:42.918Z,23.00
2018-05-21T10:59:10.469Z,22.90
2018-05-21T11:01:37.968Z,22.90
2018-05-21T11:04:06.299Z,22.80
2018-05-21T11:06:33.794Z,22.80
2018-05-21T11:09:01.338Z,22.70
2018-05-21T11:11:28.838Z,22.70
2018-05-21T11:13:56.524Z,22.60
2018-05-21T11:16:24.030Z,22.60
2018-05-21T11:18:53.913Z,22.60
2018-05-21T11:21:22.387Z,22.50
2018-05-21T11:23:50.298Z,22.50
2018-05-21T11:26:20.517Z,22.40
2018-05-21T11:28:49.939Z,22.40
2018-05-21T11:31:17.895Z,22.40
2018-05-21T11:33:46.259Z,22.40
2018-05-21T11:36:13.784Z,22.30
2018-05-21T11:38:42.047Z,22.30
2018-05-21T11:41:09.646Z,22.30
2018-05-21T11:43:38.111Z,22.30
2018-05-21T11:46:05.687Z,22.20
2018-05-21T11:48:33.291Z,22.20
2018-05-21T11:51:00.833Z,22.20
2018-05-21T11:53:31.343Z,22.10
2018-05-21T11:55:58.840Z,22.10
2018-05-21T11:58:26.352Z,22.00
2018-05-21T12:00:53.901Z,22.00
2018-05-21T12:03:21.394Z,22.00
2018-05-21T12:05:49.675Z,22.00
2018-05-21T12:08:17.981Z,22.10
2018-05-21T12:10:46.270Z,22.10
2018-05-21T12:13:13.781Z,22.10
2018-05-21T12:15:41.392Z,22.00
2018-05-21T12:18:08.972Z,22.00
2018-05-21T12:20:36.424Z,22.00
2018-05-21T12:23:04.941Z,22.00
2018-05-21T12:25:33.311Z,22.10
2018-05-21T12:28:00.805Z,22.10
2018-05-21T12:30:28.455Z,22.00
2018-05-21T12:32:55.951Z,22.00
2018-05-21T12:35:23.478Z,22.00
2018-05-21T12:37:50.968Z,22.00
2018-05-21T12:40:18.572Z,22.00
2018-05-21T12:42:46.844Z,22.30
2018-05-21T12:45:17.326Z,22.30
2018-05-21T12:47:44.776Z,22.80
2018-05-21T12:50:12.436Z,23.70
2018-05-21T12:52:40.036Z,24.60
2018-05-21T12:55:07.545Z,25.20
2018-05-21T12:57:35.104Z,26.00
2018-05-21T13:00:02.614Z,26.80
2018-05-21T13:02:30.154Z,27.40
2018-05-21T13:04:57.680Z,27.90
2018-05-21T13:07:25.207Z,28.60
2018-05-21T13:09:52.705Z,29.00
2018-05-21T13:12:20.270Z,29.40
2018-05-21T13:14:47.765Z,29.50
2018-05-21T13:17:15.294Z,30.00
2018-05-21T13:19:42.786Z,30.40
2018-05-21T13:22:10.322Z,30.80
2018-05-21T13:24:37.814Z,31.00
2018-05-21T13:27:05.360Z,31.40
2018-05-21T13:29:32.873Z,31.90
2018-05-21T13:32:00.422Z,32.20
2018-05-21T13:34:27.920Z,32.70
2018-05-21T13:36:55.508Z,33.10
2018-05-21T13:39:23.002Z,33.20
2018-05-21T13:41:50.511Z,33.50
2018-05-21T13:44:19.718Z,33.90
2018-05-21T13:46:47.277Z,34.10
2018-05-21T13:49:14.826Z,34.30
2018-05-21T13:51:42.339Z,34.60
2018-05-21T13:54:09.865Z,34.80
2018-05-21T13:56:38.141Z,35.50
2018-05-21T13:59:06.453Z,35.60
2018-05-21T14:01:33.959Z,35.60
2018-05-21T14:04:01.504Z,35.80
2018-05-21T14:06:29.223Z,36.10
2018-05-21T14:08:56.764Z,36.30
2018-05-21T14:11:25.020Z,36.80
2018-05-21T14:13:52.573Z,36.80
2018-05-21T14:16:20.108Z,36.70
2018-05-21T14:18:47.701Z,37.00
2018-05-21T14:21:15.207Z,37.10
2018-05-21T14:23:42.749Z,37.40
2018-05-21T14:26:11.016Z,37.60
2018-05-21T14:28:38.587Z,37.60
2018-05-21T14:31:06.844Z,38.00
2018-05-21T14:33:35.122Z,38.00
2018-05-21T14:36:03.450Z,38.00
2018-05-21T14:38:30.945Z,38.00
2018-05-21T14:40:58.521Z,38.00
2018-05-21T14:43:26.787Z,38.60
2018-05-21T14:45:54.373Z,38.60
2018-05-21T14:48:21.919Z,38.50
2018-05-21T14:50:50.993Z,38.40
2018-05-21T14:53:18.492Z,38.40
2018-05-21T14:55:46.041Z,38.60
2018-05-21T14:58:13.539Z,38.00
2018-05-21T15:00:41.075Z,38.30
2018-05-21T15:03:08.574Z,37.50
2018-05-21T15:05:36.879Z,38.00
2018-05-21T15:08:05.241Z,38.60
2018-05-21T15:10:33.470Z,39.10
2018-05-21T15:13:00.994Z,39.10
2018-05-21T15:15:28.538Z,39.60
2018-05-21T15:17:56.028Z,39.50
2018-05-21T15:20:23.690Z,39.50
2018-05-21T15:22:51.207Z,40.00
2018-05-21T15:25:19.114Z,40.20
2018-05-21T15:27:46.629Z,40.50
2018-05-21T15:30:14.949Z,41.00
2018-05-21T15:32:42.554Z,41.00
2018-05-21T15:35:10.088Z,40.80
2018-05-21T15:37:37.648Z,40.70
2018-05-21T15:40:05.236Z,40.60
2018-05-21T15:42:32.782Z,40.60
2018-05-21T15:45:00.882Z,40.50
2018-05-21T15:47:28.419Z,40.80
2018-05-21T15:49:55.951Z,40.80
2018-05-21T15:52:23.515Z,40.90
2018-05-21T15:54:51.063Z,40.90
2018-05-21T15:57:18.609Z,41.20
2018-05-21T15:59:46.867Z,41.40
2018-05-21T16:02:14.423Z,41.40
2018-05-21T16:04:41.920Z,41.30
2018-05-21T16:07:09.987Z,41.20
2018-05-21T16:09:37.508Z,41.20
2018-05-21T16:12:06.276Z,41.40
2018-05-21T16:14:33.839Z,41.30
2018-05-21T16:17:01.413Z,41.20
2018-05-21T16:19:30.804Z,39.80
2018-05-21T16:21:58.397Z,37.10
2018-05-21T16:24:26.008Z,35.30
2018-05-21T16:26:53.616Z,33.70
2018-05-21T16:29:21.994Z,31.40
2018-05-21T16:31:50.131Z,31.30
2018-05-21T16:34:17.655Z,30.40
2018-05-21T16:36:45.271Z,29.60
2018-05-21T16:39:12.783Z,29.00
2018-05-21T16:41:40.376Z,28.30
2018-05-21T16:44:09.049Z,27.70
2018-05-21T16:46:36.606Z,27.20
2018-05-21T16:49:04.166Z,26.70
2018-05-21T16:51:31.720Z,26.40
2018-05-21T16:53:59.429Z,26.10
2018-05-21T16:56:26.900Z,25.80
2018-05-21T16:58:54.438Z,25.60
2018-05-21T17:01:22.013Z,25.40
2018-05-21T17:03:50.303Z,25.00
2018-05-21T17:06:18.047Z,25.00
2018-05-21T17:08:46.431Z,24.60
2018-05-21T17:11:14.714Z,24.50
2018-05-21T17:13:42.252Z,24.50
2018-05-21T17:16:09.751Z,24.40
2018-05-21T17:18:37.293Z,24.30
2018-05-21T17:21:05.568Z,24.10
2018-05-21T17:23:33.123Z,24.10
2018-05-21T17:26:01.410Z,24.00
2018-05-21T17:28:28.963Z,24.00
2018-05-21T17:30:56.462Z,23.90
2018-05-21T17:33:24.022Z,23.90
2018-05-21T17:35:51.547Z,23.80
2018-05-21T17:38:19.226Z,23.70
2018-05-21T17:40:46.893Z,23.60
2018-05-21T17:43:14.451Z,23.50
2018-05-21T17:45:41.967Z,23.40
2018-05-21T17:48:09.552Z,23.30
2018-05-21T17:50:37.065Z,23.20
2018-05-21T17:53:04.587Z,23.00
2018-05-21T17:55:32.141Z,22.90
2018-05-21T17:57:59.687Z,22.90
2018-05-21T18:00:27.253Z,22.80
2018-05-21T18:02:54.785Z,22.80
2018-05-21T18:05:23.137Z,22.60
2018-05-21T18:07:50.636Z,22.60
2018-05-21T18:10:18.968Z,22.40
2018-05-21T18:12:46.480Z,22.40
2018-05-21T18:15:14.056Z,22.40
2018-05-21T18:17:42.159Z,22.30
2018-05-21T18:20:09.714Z,22.30
2018-05-21T18:22:37.222Z,22.20
2018-05-21T18:25:04.783Z,22.20
2018-05-21T18:27:32.317Z,22.10
2018-05-21T18:30:00.665Z,22.00
2018-05-21T18:32:28.187Z,22.00
2018-05-21T18:34:56.368Z,21.90
2018-05-21T18:37:23.891Z,21.90
2018-05-21T18:39:52.204Z,21.90
2018-05-21T18:42:19.749Z,21.80
2018-05-21T18:44:47.328Z,21.80
2018-05-21T18:47:15.758Z,21.70
2018-05-21T18:49:43.297Z,21.60
2018-05-21T18:52:10.843Z,21.60
2018-05-21T18:54:38.446Z,21.60
2018-05-21T18:57:06.791Z,21.40
2018-05-21T18:59:34.343Z,21.40
2018-05-21T19:02:01.943Z,21.40
2018-05-21T19:04:30.261Z,21.20
2018-05-21T19:06:57.844Z,21.20
2018-05-21T19:09:25.362Z,21.10
2018-05-21T19:11:52.959Z,21.10
2018-05-21T19:14:20.483Z,20.90
2018-05-21T19:16:48.023Z,20.90
2018-05-21T19:19:17.170Z,20.70
2018-05-21T19:21:44.703Z,20.60
2018-05-21T19:24:12.241Z,20.60
2018-05-21T19:26:40.577Z,20.50
2018-05-21T19:29:08.089Z,20.50
2018-05-21T19:31:35.621Z,20.50
2018-05-21T19:34:03.168Z,20.40
2018-05-21T19:36:30.677Z,20.40
2018-05-21T19:38:58.256Z,20.30
2018-05-21T19:41:25.767Z,20.30
2018-05-21T19:43:53.312Z,20.30
2018-05-21T19:46:20.816Z,20.20
2018-05-21T19:48:48.373Z,20.20
2018-05-21T19:51:15.872Z,20.20
2018-05-21T19:53:43.428Z,20.20
2018-05-21T19:56:13.169Z,20.20
2018-05-21T19:58:41.492Z,20.10
2018-05-21T20:01:09.013Z,20.10
2018-05-21T20:03:37.358Z,20.10
2018-05-21T20:06:06.099Z,20.10
2018-05-21T20:08:33.649Z,20.10
2018-05-21T20:11:01.169Z,20.00
2018-05-21T20:13:28.681Z,20.00
2018-05-21T20:15:56.231Z,20.00
2018-05-21T20:18:32.580Z,20.00
2018-05-21T20:21:00.942Z,19.90
2018-05-21T20:23:28.471Z,19.90
2018-05-21T20:25:56.056Z,19.80
2018-05-21T20:28:23.553Z,19.80
2018-05-21T20:30:51.893Z,19.80
2018-05-21T20:33:19.396Z,19.70
2018-05-21T20:35:46.958Z,19.70
2018-05-21T20:38:14.484Z,19.60
2018-05-21T20:40:42.027Z,19.60
2018-05-21T20:43:09.530Z,19.60
2018-05-21T20:45:37.074Z,19.50
2018-05-21T20:48:04.591Z,19.50
2018-05-21T20:50:32.143Z,19.40
2018-05-21T20:52:59.643Z,19.40
2018-05-21T20:55:27.189Z,19.40
2018-05-21T20:57:54.713Z,19.30
2018-05-21T21:00:22.213Z,19.30
2018-05-21T21:02:50.539Z,19.20
2018-05-21T21:05:18.112Z,19.20
2018-05-21T21:07:45.615Z,19.10
2018-05-21T21:10:13.154Z,19.10
2018-05-21T21:12:40.699Z,19.10
2018-05-21T21:15:08.209Z,19.10
2018-05-21T21:17:35.758Z,19.00
2018-05-21T21:20:03.263Z,19.00
2018-05-21T21:22:30.804Z,19.00
2018-05-21T21:24:58.307Z,18.90
2018-05-21T21:27:25.847Z,18.90
2018-05-21T21:29:53.343Z,18.80
2018-05-21T21:32:21.714Z,18.70
2018-05-21T21:34:49.415Z,18.70
2018-05-21T21:37:16.931Z,18.70
2018-05-21T21:39:44.428Z,18.60
2018-05-21T21:42:11.955Z,18.60
2018-05-21T21:44:40.333Z,18.50
2018-05-21T21:47:07.818Z,18.40
2018-05-21T21:49:35.343Z,18.40
2018-05-21T21:52:02.881Z,18.30
2018-05-21T21:54:30.378Z,18.20
2018-05-21T21:56:57.913Z,18.20
2018-05-21T21:59:25.475Z,18.10
2018-05-21T22:01:52.979Z,18.10
2018-05-21T22:04:20.563Z,18.00
2018-05-21T22:06:48.078Z,17.90
2018-05-21T22:09:16.375Z,17.80
2018-05-21T22:11:43.871Z,17.70
2018-05-21T22:14:11.415Z,17.70
2018-05-21T22:16:38.944Z,17.60
2018-05-21T22:19:06.621Z,17.60
2018-05-21T22:21:34.891Z,17.50
2018-05-21T22:24:02.448Z,17.50
2018-05-21T22:26:30.511Z,17.40
2018-05-21T22:28:58.010Z,17.40
2018-05-21T22:31:25.540Z,17.30
2018-05-21T22:33:53.045Z,17.30
2018-05-21T22:36:20.593Z,17.20
2018-05-21T22:38:48.080Z,17.20
2018-05-21T22:41:15.629Z,17.20
2018-05-21T22:43:43.139Z,17.10
2018-05-21T22:46:10.684Z,17.00
2018-05-21T22:48:38.187Z,17.00
2018-05-21T22:51:05.732Z,16.90
2018-05-21T22:53:33.235Z,16.80
2018-05-21T22:56:01.542Z,16.70
2018-05-21T22:58:29.048Z,16.70
2018-05-21T23:00:56.595Z,16.60
2018-05-21T23:03:24.083Z,16.60
2018-05-21T23:05:51.631Z,16.60
2018-05-21T23:08:19.215Z,16.60
2018-05-21T23:10:46.705Z,16.60
2018-05-21T23:13:14.247Z,16.60
2018-05-21T23:15:41.738Z,16.60
2018-05-21T23:18:09.368Z,16.70
2018-05-21T23:20:36.858Z,16.70
2018-05-21T23:23:04.399Z,16.60
2018-05-21T23:25:31.886Z,16.60
2018-05-21T23:27:59.419Z,16.60
2018-05-21T23:30:26.913Z,16.60
2018-05-21T23:32:54.437Z,16.60
2018-05-21T23:35:21.966Z,16.60
2018-05-21T23:37:49.498Z,16.60
2018-05-21T23:40:16.999Z,16.60
2018-05-21T23:42:44.542Z,16.50
2018-05-21T23:45:12.042Z,16.50
2018-05-21T23:47:39.574Z,16.50
2018-05-21T23:50:07.071Z,16.40
2018-05-21T23:52:34.640Z,16.40
2018-05-21T23:55:02.150Z,16.40
2018-05-21T23:57:29.660Z,16.40
2018-05-21T23:59:57.200Z,16.30
